Aviation Digital Data Service (ADDS)

Output produced by METARs form (0833 UTC 19 April 2019)
found at http://www.aviationweather.gov/metar/data/
 
METAR text: BGGH 190750Z AUTO 02010KT //// FEW200/// M07/M13 Q1004
Conditions at: BGGH (GODTHAB (PORT) , GL) observed 0750 UTC 19 April 2019
Temperature: -7.0°C (19°F)
Dewpoint: -13.0°C ( 9°F) [RH = 62%]
Pressure (altimeter): 29.65 inches Hg (1004.0 mb)
Winds: from the NNE (20 degrees) at 12 MPH (10 knots; 5.1 m/s)
Visibility: missing
Ceiling: at least 12,000 feet AGL
Clouds: few clouds at 20000 feet AGL
Weather: no significant weather observed at this time

METAR text: BGGH 190650Z AUTO 02012KT //// FEW200/// M08/M12 Q1004
Conditions at: BGGH (GODTHAB (PORT) , GL) observed 0650 UTC 19 April 2019
Temperature: -8.0°C (18°F)
Dewpoint: -12.0°C (10°F) [RH = 73%]
Pressure (altimeter): 29.65 inches Hg (1004.0 mb)
Winds: from the NNE (20 degrees) at 14 MPH (12 knots; 6.2 m/s)
Visibility: missing
Ceiling: at least 12,000 feet AGL
Clouds: few clouds at 20000 feet AGL
Weather: no significant weather observed at this time

METAR text: BGGH 190550Z AUTO 36009KT //// FEW200/// M08/M12 Q1004
Conditions at: BGGH (GODTHAB (PORT) , GL) observed 0550 UTC 19 April 2019
Temperature: -8.0°C (18°F)
Dewpoint: -12.0°C (10°F) [RH = 73%]
Pressure (altimeter): 29.65 inches Hg (1004.0 mb)
Winds: from the N (360 degrees) at 10 MPH (9 knots; 4.6 m/s)
Visibility: missing
Ceiling: at least 12,000 feet AGL
Clouds: few clouds at 20000 feet AGL
Weather: no significant weather observed at this time

METAR text: BGGH 190450Z AUTO 35011KT //// FEW200/// M08/M13 Q1004
Conditions at: BGGH (GODTHAB (PORT) , GL) observed 0450 UTC 19 April 2019
Temperature: -8.0°C (18°F)
Dewpoint: -13.0°C ( 9°F) [RH = 67%]
Pressure (altimeter): 29.65 inches Hg (1004.0 mb)
Winds: from the N (350 degrees) at 13 MPH (11 knots; 5.7 m/s)
Visibility: missing
Ceiling: at least 12,000 feet AGL
Clouds: few clouds at 20000 feet AGL
Weather: no significant weather observed at this time

METAR text: BGGH 190350Z AUTO 35010KT //// FEW210/// M08/M13 Q1004
Conditions at: BGGH (GODTHAB (PORT) , GL) observed 0350 UTC 19 April 2019
Temperature: -8.0°C (18°F)
Dewpoint: -13.0°C ( 9°F) [RH = 67%]
Pressure (altimeter): 29.65 inches Hg (1004.0 mb)
Winds: from the N (350 degrees) at 12 MPH (10 knots; 5.1 m/s)
Visibility: missing
Ceiling: at least 12,000 feet AGL
Clouds: few clouds at 21000 feet AGL
Weather: no significant weather observed at this time

METAR text: BGGH 190250Z AUTO 36010KT //// FEW210/// M07/M13 Q1005
Conditions at: BGGH (GODTHAB (PORT) , GL) observed 0250 UTC 19 April 2019
Temperature: -7.0°C (19°F)
Dewpoint: -13.0°C ( 9°F) [RH = 62%]
Pressure (altimeter): 29.68 inches Hg (1005.0 mb)
Winds: from the N (360 degrees) at 12 MPH (10 knots; 5.1 m/s)
Visibility: missing
Ceiling: at least 12,000 feet AGL
Clouds: few clouds at 21000 feet AGL
Weather: no significant weather observed at this time

METAR text: BGGH 190150Z AUTO 35013KT //// FEW200/// M07/M13 Q1005
Conditions at: BGGH (GODTHAB (PORT) , GL) observed 0150 UTC 19 April 2019
Temperature: -7.0°C (19°F)
Dewpoint: -13.0°C ( 9°F) [RH = 62%]
Pressure (altimeter): 29.68 inches Hg (1005.0 mb)
Winds: from the N (350 degrees) at 15 MPH (13 knots; 6.7 m/s)
Visibility: missing
Ceiling: at least 12,000 feet AGL
Clouds: few clouds at 20000 feet AGL
Weather: no significant weather observed at this time

METAR text: BGGH 190050Z AUTO 34015KT //// NCD M08/M13 Q1005
Conditions at: BGGH (GODTHAB (PORT) , GL) observed 0050 UTC 19 April 2019
Temperature: -8.0°C (18°F)
Dewpoint: -13.0°C ( 9°F) [RH = 67%]
Pressure (altimeter): 29.68 inches Hg (1005.0 mb)
Winds: from the NNW (340 degrees) at 17 MPH (15 knots; 7.7 m/s)
Visibility: missing
Ceiling: at least 12,000 feet AGL
Clouds: sky clear below 12,000 feet AGL
Weather: no significant weather observed at this time

METAR text: BGGH 182350Z 35016KT 9999 SKC M07/M13 Q1005
Conditions at: BGGH (GODTHAB (PORT) , GL) observed 2350 UTC 18 April 2019
Temperature: -7.0°C (19°F)
Dewpoint: -13.0°C ( 9°F) [RH = 62%]
Pressure (altimeter): 29.68 inches Hg (1005.0 mb)
Winds: from the N (350 degrees) at 18 MPH (16 knots; 8.2 m/s)
Visibility: 6 or more miles (10+ km)
Ceiling: at least 12,000 feet AGL
Clouds: clear skies
Weather: no significant weather observed at this time

METAR text: BGGH 182250Z 36013KT 9999 FEW030 M07/M14 Q1006
Conditions at: BGGH (GODTHAB (PORT) , GL) observed 2250 UTC 18 April 2019
Temperature: -7.0°C (19°F)
Dewpoint: -14.0°C ( 7°F) [RH = 57%]
Pressure (altimeter): 29.70 inches Hg (1006.0 mb)
Winds: from the N (360 degrees) at 15 MPH (13 knots; 6.7 m/s)
Visibility: 6 or more miles (10+ km)
Ceiling: at least 12,000 feet AGL
Clouds: few clouds at 3000 feet AGL
Weather: no significant weather observed at this time

METAR text: BGGH 182150Z 35015KT 9999 FEW030 M07/M14 Q1006
Conditions at: BGGH (GODTHAB (PORT) , GL) observed 2150 UTC 18 April 2019
Temperature: -7.0°C (19°F)
Dewpoint: -14.0°C ( 7°F) [RH = 57%]
Pressure (altimeter): 29.70 inches Hg (1006.0 mb)
Winds: from the N (350 degrees) at 17 MPH (15 knots; 7.7 m/s)
Visibility: 6 or more miles (10+ km)
Ceiling: at least 12,000 feet AGL
Clouds: few clouds at 3000 feet AGL
Weather: no significant weather observed at this time

METAR text: BGGH 182050Z 34017KT 9999 FEW030 M06/M15 Q1006
Conditions at: BGGH (GODTHAB (PORT) , GL) observed 2050 UTC 18 April 2019
Temperature: -6.0°C (21°F)
Dewpoint: -15.0°C ( 5°F) [RH = 49%]
Pressure (altimeter): 29.70 inches Hg (1006.0 mb)
Winds: from the NNW (340 degrees) at 20 MPH (17 knots; 8.7 m/s)
Visibility: 6 or more miles (10+ km)
Ceiling: at least 12,000 feet AGL
Clouds: few clouds at 3000 feet AGL
Weather: no significant weather observed at this time

METAR text: BGGH 181950Z 35014KT 9999 FEW040 M06/M15 Q1006
Conditions at: BGGH (GODTHAB (PORT) , GL) observed 1950 UTC 18 April 2019
Temperature: -6.0°C (21°F)
Dewpoint: -15.0°C ( 5°F) [RH = 49%]
Pressure (altimeter): 29.70 inches Hg (1006.0 mb)
Winds: from the N (350 degrees) at 16 MPH (14 knots; 7.2 m/s)
Visibility: 6 or more miles (10+ km)
Ceiling: at least 12,000 feet AGL
Clouds: few clouds at 4000 feet AGL
Weather: no significant weather observed at this time

METAR text: BGGH 181850Z 35016KT 9999 FEW040 M06/M14 Q1007
Conditions at: BGGH (GODTHAB (PORT) , GL) observed 1850 UTC 18 April 2019
Temperature: -6.0°C (21°F)
Dewpoint: -14.0°C ( 7°F) [RH = 53%]
Pressure (altimeter): 29.73 inches Hg (1007.0 mb)
Winds: from the N (350 degrees) at 18 MPH (16 knots; 8.2 m/s)
Visibility: 6 or more miles (10+ km)
Ceiling: at least 12,000 feet AGL
Clouds: few clouds at 4000 feet AGL
Weather: no significant weather observed at this time

METAR text: BGGH 181750Z 34018KT 9999 FEW040 M06/M14 Q1007
Conditions at: BGGH (GODTHAB (PORT) , GL) observed 1750 UTC 18 April 2019
Temperature: -6.0°C (21°F)
Dewpoint: -14.0°C ( 7°F) [RH = 53%]
Pressure (altimeter): 29.73 inches Hg (1007.0 mb)
Winds: from the NNW (340 degrees) at 21 MPH (18 knots; 9.3 m/s)
Visibility: 6 or more miles (10+ km)
Ceiling: at least 12,000 feet AGL
Clouds: few clouds at 4000 feet AGL
Weather: no significant weather observed at this time

METAR text: BGGH 181650Z 36016KT 9999 FEW040 M06/M16 Q1007
Conditions at: BGGH (GODTHAB (PORT) , GL) observed 1650 UTC 18 April 2019
Temperature: -6.0°C (21°F)
Dewpoint: -16.0°C ( 3°F) [RH = 45%]
Pressure (altimeter): 29.73 inches Hg (1007.0 mb)
Winds: from the N (360 degrees) at 18 MPH (16 knots; 8.2 m/s)
Visibility: 6 or more miles (10+ km)
Ceiling: at least 12,000 feet AGL
Clouds: few clouds at 4000 feet AGL
Weather: no significant weather observed at this time

METAR text: BGGH 181550Z 01017KT 9999 FEW040 M06/M14 Q1007
Conditions at: BGGH (GODTHAB (PORT) , GL) observed 1550 UTC 18 April 2019
Temperature: -6.0°C (21°F)
Dewpoint: -14.0°C ( 7°F) [RH = 53%]
Pressure (altimeter): 29.73 inches Hg (1007.0 mb)
Winds: from the N (10 degrees) at 20 MPH (17 knots; 8.7 m/s)
Visibility: 6 or more miles (10+ km)
Ceiling: at least 12,000 feet AGL
Clouds: few clouds at 4000 feet AGL
Weather: no significant weather observed at this time

METAR text: BGGH 181450Z 36016KT 9999 FEW040 M06/M15 Q1008
Conditions at: BGGH (GODTHAB (PORT) , GL) observed 1450 UTC 18 April 2019
Temperature: -6.0°C (21°F)
Dewpoint: -15.0°C ( 5°F) [RH = 49%]
Pressure (altimeter): 29.76 inches Hg (1008.0 mb)
Winds: from the N (360 degrees) at 18 MPH (16 knots; 8.2 m/s)
Visibility: 6 or more miles (10+ km)
Ceiling: at least 12,000 feet AGL
Clouds: few clouds at 4000 feet AGL
Weather: no significant weather observed at this time

METAR text: BGGH 181350Z 01015KT 9999 FEW040 M06/M14 Q1009
Conditions at: BGGH (GODTHAB (PORT) , GL) observed 1350 UTC 18 April 2019
Temperature: -6.0°C (21°F)
Dewpoint: -14.0°C ( 7°F) [RH = 53%]
Pressure (altimeter): 29.79 inches Hg (1009.0 mb)
Winds: from the N (10 degrees) at 17 MPH (15 knots; 7.7 m/s)
Visibility: 6 or more miles (10+ km)
Ceiling: at least 12,000 feet AGL
Clouds: few clouds at 4000 feet AGL
Weather: no significant weather observed at this time

METAR text: BGGH 181250Z 01015KT 9999 FEW040 M06/M15 Q1009
Conditions at: BGGH (GODTHAB (PORT) , GL) observed 1250 UTC 18 April 2019
Temperature: -6.0°C (21°F)
Dewpoint: -15.0°C ( 5°F) [RH = 49%]
Pressure (altimeter): 29.79 inches Hg (1009.0 mb)
Winds: from the N (10 degrees) at 17 MPH (15 knots; 7.7 m/s)
Visibility: 6 or more miles (10+ km)
Ceiling: at least 12,000 feet AGL
Clouds: few clouds at 4000 feet AGL
Weather: no significant weather observed at this time

METAR text: BGGH 181150Z 02014KT 9999 FEW040 M06/M14 Q1009
Conditions at: BGGH (GODTHAB (PORT) , GL) observed 1150 UTC 18 April 2019
Temperature: -6.0°C (21°F)
Dewpoint: -14.0°C ( 7°F) [RH = 53%]
Pressure (altimeter): 29.79 inches Hg (1009.0 mb)
Winds: from the NNE (20 degrees) at 16 MPH (14 knots; 7.2 m/s)
Visibility: 6 or more miles (10+ km)
Ceiling: at least 12,000 feet AGL
Clouds: few clouds at 4000 feet AGL
Weather: no significant weather observed at this time

METAR text: BGGH 181050Z 02014KT 9999 FEW040 M07/M14 Q1009
Conditions at: BGGH (GODTHAB (PORT) , GL) observed 1050 UTC 18 April 2019
Temperature: -7.0°C (19°F)
Dewpoint: -14.0°C ( 7°F) [RH = 57%]
Pressure (altimeter): 29.79 inches Hg (1009.0 mb)
Winds: from the NNE (20 degrees) at 16 MPH (14 knots; 7.2 m/s)
Visibility: 6 or more miles (10+ km)
Ceiling: at least 12,000 feet AGL
Clouds: few clouds at 4000 feet AGL
Weather: no significant weather observed at this time

METAR text: BGGH 180950Z AUTO 02014KT //// SCT037/// M08/M15 Q1009
Conditions at: BGGH (GODTHAB (PORT) , GL) observed 0950 UTC 18 April 2019
Temperature: -8.0°C (18°F)
Dewpoint: -15.0°C ( 5°F) [RH = 57%]
Pressure (altimeter): 29.79 inches Hg (1009.0 mb)
Winds: from the NNE (20 degrees) at 16 MPH (14 knots; 7.2 m/s)
Visibility: missing
Ceiling: at least 12,000 feet AGL
Clouds: scattered clouds at 3700 feet AGL
Weather: no significant weather observed at this time

METAR text: BGGH 180850Z AUTO 36013KT //// SCT037/// M07/M14 Q1009
Conditions at: BGGH (GODTHAB (PORT) , GL) observed 0850 UTC 18 April 2019
Temperature: -7.0°C (19°F)
Dewpoint: -14.0°C ( 7°F) [RH = 57%]
Pressure (altimeter): 29.79 inches Hg (1009.0 mb)
Winds: from the N (360 degrees) at 15 MPH (13 knots; 6.7 m/s)
Visibility: missing
Ceiling: at least 12,000 feet AGL
Clouds: scattered clouds at 3700 feet AGL
Weather: no significant weather observed at this time

METAR text: BGGH 180750Z AUTO 35013KT //// FEW140/// M07/M15 Q1009
Conditions at: BGGH (GODTHAB (PORT) , GL) observed 0750 UTC 18 April 2019
Temperature: -7.0°C (19°F)
Dewpoint: -15.0°C ( 5°F) [RH = 53%]
Pressure (altimeter): 29.79 inches Hg (1009.0 mb)
Winds: from the N (350 degrees) at 15 MPH (13 knots; 6.7 m/s)
Visibility: missing
Ceiling: at least 12,000 feet AGL
Clouds: few clouds at 14000 feet AGL
Weather: no significant weather observed at this time

METAR text: BGGH 180650Z AUTO 33016KT //// FEW053/// M08/M13 Q1008
Conditions at: BGGH (GODTHAB (PORT) , GL) observed 0650 UTC 18 April 2019
Temperature: -8.0°C (18°F)
Dewpoint: -13.0°C ( 9°F) [RH = 67%]
Pressure (altimeter): 29.76 inches Hg (1008.0 mb)
Winds: from the NNW (330 degrees) at 18 MPH (16 knots; 8.2 m/s)
Visibility: missing
Ceiling: at least 12,000 feet AGL
Clouds: few clouds at 5300 feet AGL
Weather: no significant weather observed at this time

METAR text: BGGH 180550Z AUTO 33021KT //// FEW006/// SCT054/// BKN190/// M07/M09 Q1008
Conditions at: BGGH (GODTHAB (PORT) , GL) observed 0550 UTC 18 April 2019
Temperature: -7.0°C (19°F)
Dewpoint: -9.0°C (16°F) [RH = 86%]
Pressure (altimeter): 29.76 inches Hg (1008.0 mb)
Winds: from the NNW (330 degrees) at 24 MPH (21 knots; 10.8 m/s)
Visibility: missing
Ceiling: 19000 feet AGL
Clouds: few clouds at 600 feet AGL
scattered clouds at 5400 feet AGL
broken clouds at 19000 feet AGL
Weather: no significant weather observed at this time

METAR text: BGGH 180450Z AUTO 33023KT //// FEW007/// BKN052/// M08/M09 Q1008
Conditions at: BGGH (GODTHAB (PORT) , GL) observed 0450 UTC 18 April 2019
Temperature: -8.0°C (18°F)
Dewpoint: -9.0°C (16°F) [RH = 92%]
Pressure (altimeter): 29.76 inches Hg (1008.0 mb)
Winds: from the NNW (330 degrees) at 26 MPH (23 knots; 11.8 m/s)
Visibility: missing
Ceiling: 5200 feet AGL
Clouds: few clouds at 700 feet AGL
broken clouds at 5200 feet AGL
Weather: no significant weather observed at this time

METAR text: BGGH 180350Z AUTO 33023KT //// FEW007/// BKN044/// M07/M09 Q1008
Conditions at: BGGH (GODTHAB (PORT) , GL) observed 0350 UTC 18 April 2019
Temperature: -7.0°C (19°F)
Dewpoint: -9.0°C (16°F) [RH = 86%]
Pressure (altimeter): 29.76 inches Hg (1008.0 mb)
Winds: from the NNW (330 degrees) at 26 MPH (23 knots; 11.8 m/s)
Visibility: missing
Ceiling: 4400 feet AGL
Clouds: few clouds at 700 feet AGL
broken clouds at 4400 feet AGL
Weather: no significant weather observed at this time

METAR text: BGGH 180250Z AUTO 33026KT //// FEW009/// BKN043/// M07/M09 Q1007
Conditions at: BGGH (GODTHAB (PORT) , GL) observed 0250 UTC 18 April 2019
Temperature: -7.0°C (19°F)
Dewpoint: -9.0°C (16°F) [RH = 86%]
Pressure (altimeter): 29.73 inches Hg (1007.0 mb)
Winds: from the NNW (330 degrees) at 30 MPH (26 knots; 13.4 m/s)
Visibility: missing
Ceiling: 4300 feet AGL
Clouds: few clouds at 900 feet AGL
broken clouds at 4300 feet AGL
Weather: no significant weather observed at this time

METAR text: BGGH 180150Z AUTO 33024KT //// FEW017/// BKN049/// M07/M09 Q1007
Conditions at: BGGH (GODTHAB (PORT) , GL) observed 0150 UTC 18 April 2019
Temperature: -7.0°C (19°F)
Dewpoint: -9.0°C (16°F) [RH = 86%]
Pressure (altimeter): 29.73 inches Hg (1007.0 mb)
Winds: from the NNW (330 degrees) at 28 MPH (24 knots; 12.3 m/s)
Visibility: missing
Ceiling: 4900 feet AGL
Clouds: few clouds at 1700 feet AGL
broken clouds at 4900 feet AGL
Weather: no significant weather observed at this time

METAR text: BGGH 180050Z AUTO 32021KT //// SCT010/// BKN046/// M07/M08 Q1007
Conditions at: BGGH (GODTHAB (PORT) , GL) observed 0050 UTC 18 April 2019
Temperature: -7.0°C (19°F)
Dewpoint: -8.0°C (18°F) [RH = 93%]
Pressure (altimeter): 29.73 inches Hg (1007.0 mb)
Winds: from the NW (320 degrees) at 24 MPH (21 knots; 10.8 m/s)
Visibility: missing
Ceiling: 4600 feet AGL
Clouds: scattered clouds at 1000 feet AGL
broken clouds at 4600 feet AGL
Weather: no significant weather observed at this time

METAR text: BGGH 172350Z AUTO 32018KT 5000NDV -SN SCT010/// SCT013/// BKN046/// M07/M08 Q1007
Conditions at: BGGH (GODTHAB (PORT) , GL) observed 2350 UTC 17 April 2019
Temperature: -7.0°C (19°F)
Dewpoint: -8.0°C (18°F) [RH = 93%]
Pressure (altimeter): 29.73 inches Hg (1007.0 mb)
Winds: from the NW (320 degrees) at 21 MPH (18 knots; 9.3 m/s)
Visibility: missing
Ceiling: 4600 feet AGL
Clouds: scattered clouds at 1000 feet AGL
scattered clouds at 1300 feet AGL
broken clouds at 4600 feet AGL
Weather: -SN  (light snow)

METAR text: BGGH 172250Z AUTO 33021KT 2700NDV -SN BKN012/// BKN042/// M07/M09 Q1006
Conditions at: BGGH (GODTHAB (PORT) , GL) observed 2250 UTC 17 April 2019
Temperature: -7.0°C (19°F)
Dewpoint: -9.0°C (16°F) [RH = 86%]
Pressure (altimeter): 29.70 inches Hg (1006.0 mb)
Winds: from the NNW (330 degrees) at 24 MPH (21 knots; 10.8 m/s)
Visibility: missing
Ceiling: 1200 feet AGL
Clouds: broken clouds at 1200 feet AGL
broken clouds at 4200 feet AGL
Weather: -SN  (light snow)

METAR text: BGGH 172150Z AUTO 32018KT 3200NDV -SHSN FEW012/// BKN030/// M06/M08 Q1006
Conditions at: BGGH (GODTHAB (PORT) , GL) observed 2150 UTC 17 April 2019
Temperature: -6.0°C (21°F)
Dewpoint: -8.0°C (18°F) [RH = 86%]
Pressure (altimeter): 29.70 inches Hg (1006.0 mb)
Winds: from the NW (320 degrees) at 21 MPH (18 knots; 9.3 m/s)
Visibility: missing
Ceiling: 3000 feet AGL
Clouds: few clouds at 1200 feet AGL
broken clouds at 3000 feet AGL
Weather: -SHSN  (light snow showers)

METAR text: BGGH 172050Z 33016KT 9999 DRSN FEW010 BKN040 M05/M08 Q1006
Conditions at: BGGH (GODTHAB (PORT) , GL) observed 2050 UTC 17 April 2019
Temperature: -5.0°C (23°F)
Dewpoint: -8.0°C (18°F) [RH = 79%]
Pressure (altimeter): 29.70 inches Hg (1006.0 mb)
Winds: from the NNW (330 degrees) at 18 MPH (16 knots; 8.2 m/s)
Visibility: 6 or more miles (10+ km)
Ceiling: 4000 feet AGL
Clouds: few clouds at 1000 feet AGL
broken clouds at 4000 feet AGL
Weather: DRSN  (low drifting snow)

Forecast for: BGGH (GODTHAB (PORT) , GL)
Text: TAF BGGH 182035Z 1821/1902 36015KT 9999 FEW040
Forecast period: 2100 UTC 18 April 2019 to 0200 UTC 19 April 2019
Forecast type: FROM: standard forecast or significant change
Winds: from the N (360 degrees) at 17 MPH (15 knots; 7.7 m/s)
Visibility: 6 or more miles 10+ km)
Ceiling: at least 12,000 feet AGL
Clouds: few clouds at 4000 feet AGL
Weather: no significant weather forecast for this period